createdAt,value
2022-08-30T00:01:06.699Z,99.90
2022-08-30T00:02:08.896Z,99.90
2022-08-30T00:03:15.212Z,99.90
2022-08-30T00:04:17.384Z,99.90
2022-08-30T00:05:20.466Z,99.90
2022-08-30T00:06:23.745Z,99.90
2022-08-30T00:07:26.843Z,99.90
2022-08-30T00:08:30.161Z,99.90
2022-08-30T00:09:32.251Z,99.90
2022-08-30T00:10:35.600Z,99.90
2022-08-30T00:11:37.533Z,99.90
2022-08-30T00:12:40.881Z,99.90
2022-08-30T00:13:44.843Z,99.90
2022-08-30T00:14:47.910Z,99.90
2022-08-30T00:15:49.961Z,99.90
2022-08-30T00:16:52.897Z,99.90
2022-08-30T00:17:54.996Z,99.90
2022-08-30T00:18:59.228Z,99.90
2022-08-30T00:20:01.818Z,99.90
2022-08-30T00:21:06.266Z,99.90
2022-08-30T00:22:10.100Z,99.90
2022-08-30T00:23:13.451Z,99.90
2022-08-30T00:24:15.830Z,99.90
2022-08-30T00:25:19.198Z,99.90
2022-08-30T00:26:22.119Z,99.90
2022-08-30T00:27:25.069Z,99.90
2022-08-30T00:28:27.040Z,99.90
2022-08-30T00:29:30.191Z,99.90
2022-08-30T00:30:32.466Z,99.90
2022-08-30T00:31:35.449Z,99.90
2022-08-30T00:32:37.602Z,99.90
2022-08-30T00:33:40.784Z,99.90
2022-08-30T00:34:44.112Z,99.90
2022-08-30T00:35:47.096Z,99.90
2022-08-30T00:36:49.450Z,99.90
2022-08-30T00:37:52.915Z,99.90
2022-08-30T00:38:54.902Z,99.90
2022-08-30T00:39:57.964Z,99.90
2022-08-30T00:40:59.985Z,99.90
2022-08-30T00:42:02.851Z,99.90
2022-08-30T00:43:08.533Z,99.90
2022-08-30T00:44:17.022Z,99.90
2022-08-30T00:45:22.409Z,99.90
2022-08-30T00:46:25.442Z,99.90
2022-08-30T00:47:27.414Z,99.90
2022-08-30T00:48:31.399Z,99.90
2022-08-30T00:49:34.729Z,99.90
2022-08-30T00:50:42.782Z,99.90
2022-08-30T00:51:44.911Z,99.90
2022-08-30T00:52:51.038Z,99.90
2022-08-30T00:53:56.876Z,99.90
2022-08-30T00:55:02.126Z,99.90
2022-08-30T00:56:05.179Z,99.90
2022-08-30T00:57:08.612Z,99.90
2022-08-30T00:58:16.626Z,99.90
2022-08-30T00:59:21.990Z,99.90
2022-08-30T01:00:24.270Z,99.90
2022-08-30T01:01:28.281Z,99.90
2022-08-30T01:02:33.436Z,99.90
2022-08-30T01:03:37.969Z,99.90
2022-08-30T01:04:42.772Z,99.90
2022-08-30T01:05:48.260Z,99.90
2022-08-30T01:06:51.153Z,99.90
2022-08-30T01:07:54.117Z,99.90
2022-08-30T01:08:56.995Z,99.90
2022-08-30T01:09:59.883Z,99.90
2022-08-30T01:11:03.592Z,99.90
2022-08-30T01:12:07.688Z,99.90
2022-08-30T01:13:10.703Z,99.90
2022-08-30T01:14:15.280Z,99.90
2022-08-30T01:15:17.719Z,99.90
2022-08-30T01:16:22.813Z,99.90
2022-08-30T01:17:25.496Z,99.90
2022-08-30T01:18:29.603Z,99.90
2022-08-30T01:19:37.200Z,99.90
2022-08-30T01:20:46.442Z,99.90
2022-08-30T01:21:54.554Z,99.90
2022-08-30T01:23:07.190Z,99.90
2022-08-30T01:24:10.052Z,99.90
2022-08-30T01:25:15.036Z,99.90
2022-08-30T01:26:17.557Z,99.90
2022-08-30T01:27:26.434Z,99.90
2022-08-30T01:28:30.788Z,99.90
2022-08-30T01:29:34.002Z,99.90
2022-08-30T01:30:39.068Z,99.90
2022-08-30T01:31:42.157Z,99.90
2022-08-30T01:32:47.167Z,99.90
2022-08-30T01:33:51.064Z,99.90
2022-08-30T01:34:53.133Z,99.90
2022-08-30T01:35:58.117Z,99.90
2022-08-30T01:37:00.039Z,99.90
2022-08-30T01:38:04.352Z,99.90
2022-08-30T01:39:06.449Z,99.90
2022-08-30T01:40:10.481Z,99.90
2022-08-30T01:41:15.743Z,99.90
2022-08-30T01:42:19.274Z,99.90
2022-08-30T01:43:21.211Z,99.90
2022-08-30T01:44:24.115Z,99.90
2022-08-30T01:45:26.228Z,99.90
2022-08-30T01:46:35.961Z,99.90
2022-08-30T01:47:37.974Z,99.90
2022-08-30T01:48:41.926Z,99.90
2022-08-30T01:49:52.904Z,99.90
2022-08-30T01:50:56.358Z,99.90
2022-08-30T01:52:00.896Z,99.90
2022-08-30T01:53:05.639Z,99.90
2022-08-30T01:54:08.175Z,99.90
2022-08-30T01:55:11.871Z,99.90
2022-08-30T01:56:15.442Z,99.90
2022-08-30T01:57:22.152Z,99.90
2022-08-30T01:58:24.582Z,99.90
2022-08-30T01:59:27.859Z,99.90
2022-08-30T02:00:30.712Z,99.90
2022-08-30T02:01:37.153Z,99.90
2022-08-30T02:02:39.988Z,99.90
2022-08-30T02:03:45.395Z,99.90
2022-08-30T02:04:47.712Z,99.90
2022-08-30T02:05:50.618Z,99.90
2022-08-30T02:06:52.962Z,99.90
2022-08-30T02:07:56.558Z,99.90
2022-08-30T02:09:00.454Z,99.90
2022-08-30T02:10:03.570Z,99.90
2022-08-30T02:11:06.761Z,99.90
2022-08-30T02:12:09.924Z,99.90
2022-08-30T02:13:12.023Z,99.90
2022-08-30T02:14:15.673Z,99.90
2022-08-30T02:15:18.258Z,99.90
2022-08-30T02:16:23.755Z,99.90
2022-08-30T02:17:25.900Z,99.90
2022-08-30T02:18:28.980Z,99.90
2022-08-30T02:19:30.987Z,99.90
2022-08-30T02:20:33.946Z,99.90
2022-08-30T02:21:35.913Z,99.90
2022-08-30T02:22:39.294Z,99.90
2022-08-30T02:23:50.909Z,99.90
2022-08-30T02:24:54.354Z,99.90
2022-08-30T02:25:57.336Z,99.90
2022-08-30T02:26:59.390Z,99.90
2022-08-30T02:28:02.351Z,99.90
2022-08-30T02:29:05.288Z,99.90
2022-08-30T02:30:10.485Z,99.90
2022-08-30T02:31:12.644Z,99.90
2022-08-30T02:32:15.746Z,99.90
2022-08-30T02:33:18.260Z,99.90
2022-08-30T02:34:21.514Z,99.90
2022-08-30T02:35:23.916Z,99.90
2022-08-30T02:36:26.890Z,99.90
2022-08-30T02:37:28.871Z,99.90
2022-08-30T02:38:31.904Z,99.90
2022-08-30T02:39:33.868Z,99.90
2022-08-30T02:40:39.267Z,99.90
2022-08-30T02:41:42.317Z,99.90
2022-08-30T02:42:45.503Z,99.90
2022-08-30T02:43:47.546Z,99.90
2022-08-30T02:44:50.434Z,99.90
2022-08-30T02:45:52.660Z,99.90
2022-08-30T02:46:55.532Z,99.90
2022-08-30T02:47:57.593Z,99.90
2022-08-30T02:49:13.005Z,99.90
2022-08-30T02:50:23.906Z,99.90
2022-08-30T02:51:26.090Z,99.90
2022-08-30T02:52:28.987Z,99.90
2022-08-30T02:53:31.118Z,99.90
2022-08-30T02:54:34.514Z,99.90
2022-08-30T02:55:37.822Z,99.90
2022-08-30T02:56:41.746Z,99.90
2022-08-30T02:57:44.514Z,99.90
2022-08-30T02:58:48.363Z,99.90
2022-08-30T02:59:56.465Z,99.90
2022-08-30T03:00:59.777Z,99.90
2022-08-30T03:02:01.813Z,99.90
2022-08-30T03:03:05.248Z,99.90
2022-08-30T03:04:07.628Z,99.90
2022-08-30T03:05:13.064Z,99.90
2022-08-30T03:06:15.073Z,99.90
2022-08-30T03:07:18.332Z,99.90
2022-08-30T03:08:20.315Z,99.90
2022-08-30T03:09:23.675Z,99.90
2022-08-30T03:10:26.850Z,99.90
2022-08-30T03:11:31.086Z,99.90
2022-08-30T03:12:33.256Z,99.90
2022-08-30T03:13:37.894Z,99.90
2022-08-30T03:14:39.977Z,99.90
2022-08-30T03:15:43.856Z,99.90
2022-08-30T03:16:45.843Z,99.90
2022-08-30T03:17:48.932Z,99.90
2022-08-30T03:18:50.890Z,99.90
2022-08-30T03:19:54.059Z,99.90
2022-08-30T03:20:56.073Z,99.90
2022-08-30T03:21:58.979Z,99.90
2022-08-30T03:23:01.236Z,99.90
2022-08-30T03:24:04.669Z,99.90
2022-08-30T03:25:08.028Z,99.90
2022-08-30T03:26:12.610Z,99.90
2022-08-30T03:27:15.964Z,99.90
2022-08-30T03:28:19.010Z,99.90
2022-08-30T03:29:21.063Z,99.90
2022-08-30T03:30:23.934Z,99.90
2022-08-30T03:31:26.268Z,99.90
2022-08-30T03:32:29.295Z,99.90
2022-08-30T03:33:31.274Z,99.90
2022-08-30T03:34:34.631Z,99.90
2022-08-30T03:35:36.694Z,99.90
2022-08-30T03:36:40.099Z,99.90
2022-08-30T03:37:42.063Z,99.90
2022-08-30T03:38:45.022Z,99.90
2022-08-30T03:39:47.163Z,99.90
2022-08-30T03:40:50.281Z,99.90
2022-08-30T03:41:53.861Z,99.90
2022-08-30T03:42:58.193Z,99.90
2022-08-30T03:44:00.383Z,99.90
2022-08-30T03:45:05.598Z,99.90
2022-08-30T03:46:07.991Z,99.90
2022-08-30T03:47:10.964Z,99.90
2022-08-30T03:48:13.068Z,99.90
2022-08-30T03:49:16.183Z,99.90
2022-08-30T03:50:18.277Z,99.90
2022-08-30T03:51:21.266Z,99.90
2022-08-30T03:52:23.836Z,99.90
2022-08-30T03:53:27.141Z,99.90
2022-08-30T03:54:29.588Z,99.90
2022-08-30T03:55:32.751Z,99.90
2022-08-30T03:56:34.718Z,99.90
2022-08-30T03:57:40.532Z,99.90
2022-08-30T03:58:46.998Z,99.90
2022-08-30T03:59:50.025Z,99.90
2022-08-30T04:00:52.046Z,99.90
2022-08-30T04:01:55.273Z,99.90
2022-08-30T04:02:58.311Z,99.90
2022-08-30T04:04:00.354Z,99.90
2022-08-30T04:05:03.284Z,99.90
2022-08-30T04:06:05.698Z,99.90
2022-08-30T04:07:09.415Z,99.90
2022-08-30T04:08:11.413Z,99.90
2022-08-30T04:09:14.310Z,99.90
2022-08-30T04:10:16.691Z,99.90
2022-08-30T04:11:20.607Z,99.90
2022-08-30T04:12:23.332Z,99.90
2022-08-30T04:13:26.325Z,99.90
2022-08-30T04:14:29.608Z,99.90
2022-08-30T04:15:32.500Z,99.90
2022-08-30T04:16:34.756Z,99.90
2022-08-30T04:17:37.869Z,99.90
2022-08-30T04:18:39.972Z,99.90
2022-08-30T04:19:43.082Z,99.90
2022-08-30T04:20:45.029Z,99.90
2022-08-30T04:21:47.912Z,99.90
2022-08-30T04:22:50.084Z,99.90
2022-08-30T04:23:52.976Z,99.90
2022-08-30T04:24:55.120Z,99.90
2022-08-30T04:25:58.980Z,99.90
2022-08-30T04:27:01.396Z,99.90
2022-08-30T04:28:06.338Z,99.90
2022-08-30T04:29:08.757Z,99.90
2022-08-30T04:30:14.230Z,99.90
2022-08-30T04:31:18.909Z,99.90
2022-08-30T04:32:21.839Z,99.90
2022-08-30T04:33:24.686Z,99.90
2022-08-30T04:34:27.654Z,99.90
2022-08-30T04:35:29.607Z,99.90
2022-08-30T04:36:32.516Z,99.90
2022-08-30T04:37:34.477Z,99.90
2022-08-30T04:38:39.226Z,99.90
2022-08-30T04:39:42.615Z,99.90
2022-08-30T04:40:48.479Z,99.90
2022-08-30T04:41:50.484Z,99.90
2022-08-30T04:42:54.603Z,99.90
2022-08-30T04:43:56.626Z,99.90
2022-08-30T04:45:00.171Z,99.90
2022-08-30T04:46:06.551Z,99.90
2022-08-30T04:47:09.687Z,99.90
2022-08-30T04:48:11.678Z,99.90
2022-08-30T04:49:14.626Z,99.90
2022-08-30T04:50:20.144Z,99.90
2022-08-30T04:51:23.186Z,99.90
2022-08-30T04:52:25.393Z,99.90
2022-08-30T04:53:28.495Z,99.90
2022-08-30T04:54:30.614Z,99.90
2022-08-30T04:55:33.550Z,99.90
2022-08-30T04:56:35.572Z,99.90
2022-08-30T04:57:40.279Z,99.90
2022-08-30T04:58:42.571Z,99.90
2022-08-30T04:59:45.503Z,99.90
2022-08-30T05:00:47.627Z,99.90
2022-08-30T05:01:52.174Z,99.90
2022-08-30T05:02:54.384Z,99.90
2022-08-30T05:03:58.407Z,99.90
2022-08-30T05:05:20.486Z,99.90
2022-08-30T05:06:25.684Z,99.90
2022-08-30T05:07:27.731Z,99.90
2022-08-30T05:08:30.777Z,99.90
2022-08-30T05:09:32.917Z,99.90
2022-08-30T05:10:39.598Z,99.90
2022-08-30T05:11:43.329Z,99.90
2022-08-30T05:12:45.407Z,99.90
2022-08-30T05:13:49.726Z,99.90
2022-08-30T05:14:52.026Z,99.90
2022-08-30T05:15:54.934Z,99.90
2022-08-30T05:16:58.223Z,99.90
2022-08-30T05:18:01.343Z,99.90
2022-08-30T05:19:03.622Z,99.90
2022-08-30T05:20:08.136Z,99.90
2022-08-30T05:21:13.737Z,99.90
2022-08-30T05:22:16.826Z,99.90
2022-08-30T05:23:18.993Z,99.90
2022-08-30T05:24:21.866Z,99.90
2022-08-30T05:25:26.209Z,99.90
2022-08-30T05:26:33.866Z,99.90
2022-08-30T05:27:37.730Z,99.90
2022-08-30T05:28:41.203Z,99.90
2022-08-30T05:29:43.510Z,99.90
2022-08-30T05:30:46.449Z,99.90
2022-08-30T05:31:48.482Z,99.90
2022-08-30T05:32:53.649Z,99.90
2022-08-30T05:33:56.537Z,99.90
2022-08-30T05:34:59.504Z,99.90
2022-08-30T05:36:02.448Z,99.90
2022-08-30T05:37:04.470Z,99.90
2022-08-30T05:38:07.408Z,99.90
2022-08-30T05:39:12.314Z,99.90
2022-08-30T05:40:17.513Z,99.90
2022-08-30T05:41:21.143Z,99.90
2022-08-30T05:42:23.300Z,99.90
2022-08-30T05:43:26.873Z,99.90
2022-08-30T05:44:32.296Z,99.90
2022-08-30T05:45:35.197Z,99.90
2022-08-30T05:46:37.979Z,99.90
2022-08-30T05:47:41.131Z,99.90
2022-08-30T05:48:45.450Z,99.90
2022-08-30T05:49:47.742Z,99.90
2022-08-30T05:50:50.610Z,99.90
2022-08-30T05:51:53.512Z,99.90
2022-08-30T05:52:55.630Z,99.90
2022-08-30T05:53:59.836Z,99.90
2022-08-30T05:55:04.160Z,99.90
2022-08-30T05:56:09.640Z,99.90
2022-08-30T05:57:12.176Z,99.90
2022-08-30T05:58:15.470Z,99.90
2022-08-30T05:59:18.686Z,99.90
2022-08-30T06:00:20.839Z,99.90
2022-08-30T06:01:27.550Z,99.90
2022-08-30T06:02:29.551Z,99.90
2022-08-30T06:03:33.390Z,99.90
2022-08-30T06:04:37.734Z,99.90
2022-08-30T06:05:39.734Z,99.90
2022-08-30T06:06:44.232Z,99.90
2022-08-30T06:07:46.261Z,99.90
2022-08-30T06:08:49.890Z,99.90
2022-08-30T06:09:51.829Z,99.90
2022-08-30T06:10:54.767Z,99.90
2022-08-30T06:11:58.527Z,99.90
2022-08-30T06:13:01.669Z,99.90
2022-08-30T06:14:04.949Z,99.90
2022-08-30T06:15:09.069Z,99.90
2022-08-30T06:16:12.547Z,99.90
2022-08-30T06:17:16.692Z,99.90
2022-08-30T06:18:18.923Z,99.90
2022-08-30T06:19:31.212Z,99.90
2022-08-30T06:20:38.780Z,99.90
2022-08-30T06:21:42.364Z,99.90
2022-08-30T06:22:44.501Z,99.90
2022-08-30T06:23:47.798Z,99.90
2022-08-30T06:24:58.024Z,99.90
2022-08-30T06:26:05.053Z,99.90
2022-08-30T06:27:07.375Z,99.90
2022-08-30T06:28:10.775Z,99.90
2022-08-30T06:29:20.600Z,99.90
2022-08-30T06:30:23.516Z,99.90
2022-08-30T06:31:26.508Z,99.90
2022-08-30T06:32:29.428Z,99.90
2022-08-30T06:33:31.342Z,99.90
2022-08-30T06:34:34.223Z,99.90
2022-08-30T06:35:46.661Z,99.90
2022-08-30T06:36:55.294Z,99.90
2022-08-30T06:37:57.376Z,99.90
2022-08-30T06:39:00.590Z,99.90
2022-08-30T06:40:04.019Z,99.90
2022-08-30T06:41:10.589Z,99.90
2022-08-30T06:42:12.558Z,99.90
2022-08-30T06:43:15.430Z,99.90
2022-08-30T06:44:17.655Z,99.90
2022-08-30T06:45:21.244Z,99.90
2022-08-30T06:46:27.260Z,99.90
2022-08-30T06:47:30.006Z,99.90
2022-08-30T06:48:33.269Z,99.90
2022-08-30T06:49:36.265Z,99.90
2022-08-30T06:50:42.009Z,99.90
2022-08-30T06:51:45.003Z,99.90
2022-08-30T06:52:47.642Z,99.90
2022-08-30T06:53:51.759Z,99.90
2022-08-30T06:54:54.615Z,99.90
2022-08-30T06:55:58.424Z,99.90
2022-08-30T06:57:01.361Z,99.90
2022-08-30T06:58:04.043Z,99.90
2022-08-30T06:59:07.061Z,99.90
2022-08-30T07:00:13.309Z,99.90
2022-08-30T07:01:19.028Z,99.90
2022-08-30T07:02:22.072Z,99.90
2022-08-30T07:03:25.321Z,99.90
2022-08-30T07:04:28.550Z,99.90
2022-08-30T07:05:31.001Z,99.90
2022-08-30T07:06:36.090Z,99.90
2022-08-30T07:07:38.672Z,99.90
2022-08-30T07:08:42.029Z,99.90
2022-08-30T07:09:44.573Z,99.90
2022-08-30T07:10:47.836Z,99.90
2022-08-30T07:11:51.429Z,99.90
2022-08-30T07:12:53.598Z,99.90
2022-08-30T07:13:56.639Z,99.90
2022-08-30T07:14:58.739Z,99.90
2022-08-30T07:16:01.837Z,99.90
2022-08-30T07:17:25.584Z,99.90
2022-08-30T07:18:57.615Z,99.90
2022-08-30T07:19:59.670Z,99.90
2022-08-30T07:21:09.099Z,99.90
2022-08-30T07:22:13.512Z,99.90
2022-08-30T07:23:15.900Z,99.90
2022-08-30T07:24:20.463Z,99.90
2022-08-30T07:25:22.557Z,99.90
2022-08-30T07:26:28.511Z,99.90
2022-08-30T07:27:32.116Z,99.90
2022-08-30T07:28:37.797Z,99.90
2022-08-30T07:29:42.015Z,99.90
2022-08-30T07:30:44.060Z,99.90
2022-08-30T07:31:46.996Z,99.90
2022-08-30T07:32:49.221Z,99.90
2022-08-30T07:33:52.850Z,99.90
2022-08-30T07:34:55.271Z,99.90
2022-08-30T07:35:58.834Z,99.90
2022-08-30T07:37:04.588Z,99.90
2022-08-30T07:38:12.280Z,99.90
2022-08-30T07:39:15.195Z,99.90
2022-08-30T07:40:17.380Z,99.90
2022-08-30T07:41:22.251Z,99.90
2022-08-30T07:42:25.143Z,99.90
2022-08-30T07:43:27.261Z,99.90
2022-08-30T07:44:30.096Z,99.90
2022-08-30T07:45:32.315Z,99.90
2022-08-30T07:46:39.281Z,99.90
2022-08-30T07:47:42.681Z,99.90
2022-08-30T07:48:44.693Z,99.90
2022-08-30T07:49:47.744Z,99.90
2022-08-30T07:50:52.622Z,99.90
2022-08-30T07:51:59.313Z,99.90
2022-08-30T07:53:01.323Z,99.90
2022-08-30T07:54:06.994Z,99.90
2022-08-30T07:55:09.989Z,99.90
2022-08-30T07:56:13.186Z,99.90
2022-08-30T07:57:15.938Z,99.90
2022-08-30T07:58:19.249Z,99.90
2022-08-30T07:59:22.326Z,99.90
2022-08-30T08:00:24.360Z,99.90
2022-08-30T08:01:27.317Z,99.90
2022-08-30T08:02:29.556Z,99.90
2022-08-30T08:03:32.484Z,99.90
2022-08-30T08:04:35.770Z,99.90
2022-08-30T08:05:39.788Z,99.90
2022-08-30T08:06:43.198Z,99.90
2022-08-30T08:07:45.257Z,99.90
2022-08-30T08:08:48.635Z,99.90
2022-08-30T08:09:52.845Z,99.90
2022-08-30T08:10:55.746Z,99.90
2022-08-30T08:11:57.862Z,99.90
2022-08-30T08:13:01.354Z,99.90
2022-08-30T08:14:05.758Z,99.90
2022-08-30T08:15:09.096Z,99.90
2022-08-30T08:16:12.292Z,99.90
2022-08-30T08:17:14.586Z,99.90
2022-08-30T08:18:17.755Z,99.90
2022-08-30T08:19:21.237Z,99.90
2022-08-30T08:20:23.572Z,99.90
2022-08-30T08:21:27.706Z,99.90
2022-08-30T08:22:29.645Z,99.90
2022-08-30T08:23:32.716Z,99.90
2022-08-30T08:24:35.804Z,99.90
2022-08-30T08:25:42.523Z,99.90
2022-08-30T08:26:45.610Z,99.90
2022-08-30T08:27:48.948Z,99.90
2022-08-30T08:28:52.108Z,99.90
2022-08-30T08:29:54.062Z,99.90
2022-08-30T08:30:57.437Z,99.90
2022-08-30T08:32:00.197Z,99.90
2022-08-30T08:33:04.919Z,99.90
2022-08-30T08:34:07.426Z,99.90
2022-08-30T08:35:11.219Z,99.90
2022-08-30T08:36:13.439Z,99.90
2022-08-30T08:37:17.390Z,99.90
2022-08-30T08:38:23.709Z,99.90
2022-08-30T08:39:26.579Z,99.90
2022-08-30T08:40:34.437Z,99.90
2022-08-30T08:41:49.678Z,99.90
2022-08-30T08:43:01.454Z,99.90
2022-08-30T08:44:25.021Z,99.90
2022-08-30T08:45:39.734Z,99.90
2022-08-30T08:46:54.574Z,99.90
2022-08-30T08:48:04.269Z,99.90
2022-08-30T08:49:09.231Z,99.90
2022-08-30T08:50:18.500Z,99.90
2022-08-30T08:51:44.695Z,99.90
2022-08-30T08:53:20.597Z,99.90
2022-08-30T08:54:38.264Z,99.90
2022-08-30T08:56:55.670Z,99.90
2022-08-30T08:57:58.204Z,99.90
2022-08-30T08:59:01.966Z,99.90
2022-08-30T09:00:05.114Z,99.90
2022-08-30T09:01:10.480Z,99.90
2022-08-30T09:02:24.883Z,99.90
2022-08-30T09:03:28.703Z,99.90
2022-08-30T09:04:35.415Z,99.90
2022-08-30T09:05:40.640Z,99.90
2022-08-30T09:06:51.042Z,99.90
2022-08-30T09:07:59.766Z,99.90
2022-08-30T09:09:02.854Z,99.90
2022-08-30T09:10:06.685Z,99.90
2022-08-30T09:11:15.484Z,99.90
2022-08-30T09:12:20.966Z,99.90
2022-08-30T09:13:24.740Z,99.90
2022-08-30T09:14:31.283Z,99.90
2022-08-30T09:15:35.647Z,99.90
2022-08-30T09:16:54.182Z,99.90
2022-08-30T09:17:59.785Z,99.90
2022-08-30T09:19:02.362Z,99.90
2022-08-30T09:20:05.905Z,99.90
2022-08-30T09:21:08.784Z,99.90
2022-08-30T09:22:26.363Z,99.90
2022-08-30T09:23:32.359Z,99.90
2022-08-30T09:24:40.933Z,99.90
2022-08-30T09:25:52.684Z,99.90
2022-08-30T09:26:54.626Z,99.90
2022-08-30T09:28:12.417Z,99.90
2022-08-30T09:29:17.826Z,99.90
2022-08-30T09:30:23.717Z,99.90
2022-08-30T09:31:28.014Z,99.90
2022-08-30T09:32:35.276Z,99.90
2022-08-30T09:33:39.256Z,99.90
2022-08-30T09:34:44.343Z,99.90
2022-08-30T09:35:49.430Z,99.90
2022-08-30T09:36:53.835Z,99.90
2022-08-30T09:37:59.319Z,99.90
2022-08-30T09:39:04.346Z,99.90
2022-08-30T09:40:17.769Z,99.90
2022-08-30T09:41:30.341Z,99.90
2022-08-30T09:42:34.018Z,99.90
2022-08-30T09:43:38.480Z,99.90
2022-08-30T09:44:40.680Z,99.90
2022-08-30T09:45:47.217Z,99.90
2022-08-30T09:46:54.527Z,99.90
2022-08-30T09:47:59.172Z,99.90
2022-08-30T09:49:01.322Z,99.90
2022-08-30T09:50:07.765Z,99.90
2022-08-30T09:51:31.129Z,99.90
2022-08-30T09:52:55.420Z,99.90
2022-08-30T09:54:17.140Z,99.90
2022-08-30T09:55:33.362Z,99.90
2022-08-30T09:56:43.572Z,99.90
2022-08-30T09:57:57.974Z,99.90
2022-08-30T09:59:11.527Z,99.90
2022-08-30T10:00:18.126Z,99.90
2022-08-30T10:01:24.249Z,99.90
2022-08-30T10:02:41.609Z,99.90
2022-08-30T10:03:51.363Z,99.90
2022-08-30T10:05:02.958Z,99.90
2022-08-30T10:06:13.546Z,99.90
2022-08-30T10:07:21.565Z,99.90
2022-08-30T10:08:44.305Z,99.90
2022-08-30T10:09:52.565Z,99.90
2022-08-30T10:11:00.340Z,99.90
2022-08-30T10:12:16.575Z,99.90
2022-08-30T10:13:48.744Z,99.90
2022-08-30T10:15:03.463Z,99.90
2022-08-30T10:16:16.953Z,99.90
2022-08-30T10:17:39.074Z,99.90
2022-08-30T10:18:47.099Z,99.90
2022-08-30T10:20:02.553Z,99.90
2022-08-30T10:21:19.055Z,99.90
2022-08-30T10:22:27.029Z,99.90
2022-08-30T10:23:34.746Z,99.90
2022-08-30T10:24:43.919Z,99.90
2022-08-30T10:25:51.773Z,99.90
2022-08-30T10:27:00.811Z,99.90
2022-08-30T10:28:07.978Z,99.90
2022-08-30T10:29:14.783Z,99.90
2022-08-30T10:30:20.766Z,99.90
2022-08-30T10:31:31.651Z,99.90
2022-08-30T10:32:39.662Z,99.90
2022-08-30T10:33:46.967Z,99.90
2022-08-30T10:34:55.587Z,99.90
2022-08-30T10:36:01.758Z,99.90
2022-08-30T10:37:08.473Z,99.90
2022-08-30T10:38:19.347Z,99.90
2022-08-30T10:39:25.478Z,99.90
2022-08-30T10:40:51.063Z,99.90
2022-08-30T10:42:01.415Z,99.90
2022-08-30T10:43:09.732Z,99.90
2022-08-30T10:44:19.913Z,99.90
2022-08-30T10:45:25.700Z,99.90
2022-08-30T10:46:37.047Z,99.90
2022-08-30T10:47:45.808Z,99.90
2022-08-30T10:48:48.618Z,99.90
2022-08-30T10:49:58.500Z,99.90
2022-08-30T10:51:08.186Z,99.90
2022-08-30T10:52:28.852Z,99.90
2022-08-30T10:53:38.338Z,99.90
2022-08-30T10:54:48.140Z,99.90
2022-08-30T10:55:55.870Z,99.90
2022-08-30T10:56:59.541Z,99.90
2022-08-30T10:58:04.855Z,99.90
2022-08-30T10:59:08.258Z,99.90
2022-08-30T11:00:22.722Z,99.90
2022-08-30T11:01:47.948Z,99.90
2022-08-30T11:03:17.751Z,99.90
2022-08-30T11:04:36.007Z,99.90
2022-08-30T11:05:47.593Z,99.90
2022-08-30T11:07:04.976Z,99.90
2022-08-30T11:08:23.896Z,99.90
2022-08-30T11:09:47.862Z,99.90
2022-08-30T11:11:03.573Z,99.90
2022-08-30T11:12:29.665Z,99.90
2022-08-30T11:13:35.409Z,99.90
2022-08-30T11:14:41.066Z,99.90
2022-08-30T11:16:00.817Z,99.90
2022-08-30T11:17:05.090Z,99.90
2022-08-30T11:18:14.735Z,99.90
2022-08-30T11:19:21.022Z,99.90
2022-08-30T11:20:32.271Z,99.90
2022-08-30T11:21:39.064Z,99.90
2022-08-30T11:23:33.118Z,99.90
2022-08-30T11:25:10.216Z,99.90
2022-08-30T11:26:33.621Z,99.90
2022-08-30T11:27:49.307Z,99.90
2022-08-30T11:29:05.661Z,99.90
2022-08-30T11:30:53.231Z,99.90
2022-08-30T11:31:56.865Z,99.90
2022-08-30T11:33:07.877Z,99.90
2022-08-30T11:34:13.239Z,99.90
2022-08-30T11:35:47.349Z,99.90
2022-08-30T11:37:09.411Z,99.90
2022-08-30T11:38:16.980Z,99.90
2022-08-30T11:40:05.182Z,99.90
2022-08-30T11:41:09.444Z,99.90
2022-08-30T11:42:29.323Z,99.90
2022-08-30T11:43:56.116Z,99.90
2022-08-30T11:45:55.549Z,99.90
2022-08-30T11:46:59.136Z,99.90
2022-08-30T11:48:05.878Z,99.90
2022-08-30T11:49:41.698Z,99.90
2022-08-30T11:50:54.410Z,99.90
2022-08-30T11:52:27.101Z,99.90
2022-08-30T11:53:36.814Z,99.90
2022-08-30T11:54:53.298Z,99.90
2022-08-30T11:56:06.837Z,99.40
2022-08-30T11:57:20.306Z,99.90
2022-08-30T11:58:37.631Z,99.90
2022-08-30T12:00:00.040Z,99.60
2022-08-30T12:01:42.115Z,99.40
2022-08-30T12:02:49.966Z,99.20
2022-08-30T12:04:01.272Z,99.50
2022-08-30T12:05:04.434Z,99.40
2022-08-30T12:06:11.541Z,99.70
2022-08-30T12:07:54.690Z,99.30
2022-08-30T12:09:02.690Z,99.70
2022-08-30T12:10:07.246Z,99.10
2022-08-30T12:12:00.660Z,98.70
2022-08-30T12:13:03.537Z,96.90
2022-08-30T12:14:29.399Z,97.00
2022-08-30T12:15:57.040Z,97.20
2022-08-30T12:17:19.578Z,97.90
2022-08-30T12:18:32.776Z,97.70
2022-08-30T12:19:34.823Z,98.30
2022-08-30T12:20:43.922Z,97.60
2022-08-30T12:21:56.451Z,97.70
2022-08-30T12:23:18.351Z,97.60
2022-08-30T12:24:27.250Z,97.70
2022-08-30T12:25:32.417Z,97.40
2022-08-30T12:26:38.791Z,97.10
2022-08-30T12:27:43.214Z,96.80
2022-08-30T12:28:49.069Z,96.50
2022-08-30T12:29:54.121Z,97.10
2022-08-30T12:31:09.597Z,96.50
2022-08-30T12:32:19.026Z,97.10
2022-08-30T12:33:36.587Z,97.20
2022-08-30T12:34:52.082Z,97.00
2022-08-30T12:35:54.654Z,97.60
2022-08-30T12:37:04.514Z,97.70
2022-08-30T12:38:14.070Z,97.60
2022-08-30T12:39:20.111Z,97.20
2022-08-30T12:40:25.672Z,96.50
2022-08-30T12:41:28.726Z,96.40
2022-08-30T12:42:36.400Z,96.40
2022-08-30T12:43:48.571Z,96.50
2022-08-30T12:44:55.397Z,96.90
2022-08-30T12:46:07.570Z,97.50
2022-08-30T12:47:14.948Z,97.90
2022-08-30T12:48:19.760Z,97.20
2022-08-30T12:49:24.974Z,97.00
2022-08-30T12:50:29.953Z,97.60
2022-08-30T12:51:38.984Z,97.20
2022-08-30T12:52:45.838Z,97.00
2022-08-30T12:53:51.403Z,96.50
2022-08-30T12:54:57.410Z,96.80
2022-08-30T12:56:02.833Z,96.20
2022-08-30T12:57:32.063Z,95.60
2022-08-30T12:58:43.559Z,95.80
2022-08-30T12:59:56.871Z,96.20
2022-08-30T13:01:18.485Z,97.30
2022-08-30T13:02:24.163Z,96.60
2022-08-30T13:03:32.666Z,96.90
2022-08-30T13:04:35.829Z,96.60
2022-08-30T13:05:48.054Z,96.70
2022-08-30T13:06:53.190Z,97.10
2022-08-30T13:08:10.223Z,96.60
2022-08-30T13:09:26.902Z,96.80
2022-08-30T13:10:29.042Z,97.30
2022-08-30T13:11:31.933Z,96.30
2022-08-30T13:12:35.982Z,96.00
2022-08-30T13:13:44.469Z,96.10
2022-08-30T13:14:46.988Z,95.80
2022-08-30T13:15:50.411Z,95.30
2022-08-30T13:17:06.459Z,95.30
2022-08-30T13:18:26.784Z,95.90
2022-08-30T13:19:35.335Z,96.40
2022-08-30T13:20:38.350Z,96.30
2022-08-30T13:21:50.653Z,96.40
2022-08-30T13:23:05.195Z,96.90
2022-08-30T13:24:07.304Z,96.60
2022-08-30T13:25:12.159Z,95.60
2022-08-30T13:26:15.014Z,95.30
2022-08-30T13:27:30.000Z,94.90
2022-08-30T13:28:41.691Z,95.10
2022-08-30T13:29:47.443Z,95.30
2022-08-30T13:30:51.800Z,95.50
2022-08-30T13:31:56.169Z,95.90
2022-08-30T13:33:01.342Z,95.30
2022-08-30T13:34:05.309Z,96.00
2022-08-30T13:35:09.873Z,95.20
2022-08-30T13:36:12.986Z,95.40
2022-08-30T13:38:40.882Z,96.30
2022-08-30T13:39:46.192Z,95.20
2022-08-30T13:40:48.631Z,95.50
2022-08-30T13:41:51.877Z,96.30
2022-08-30T13:42:53.993Z,96.70
2022-08-30T13:44:13.582Z,96.20
2022-08-30T13:46:44.782Z,95.50
2022-08-30T13:47:49.885Z,96.00
2022-08-30T13:49:04.750Z,96.90
2022-08-30T13:50:07.937Z,95.20
2022-08-30T13:51:13.097Z,95.80
2022-08-30T13:52:22.039Z,96.00
2022-08-30T13:54:49.808Z,96.20
2022-08-30T13:55:54.035Z,96.60
2022-08-30T13:56:57.249Z,96.40
2022-08-30T13:58:00.487Z,96.80
2022-08-30T13:59:03.035Z,96.80
2022-08-30T14:00:09.757Z,97.10
2022-08-30T14:01:15.432Z,97.10
2022-08-30T14:02:17.469Z,97.10
2022-08-30T14:03:22.010Z,96.40
2022-08-30T14:04:24.342Z,96.30
2022-08-30T14:09:44.030Z,96.20
2022-08-30T14:10:47.344Z,96.00
2022-08-30T14:11:50.633Z,96.20
2022-08-30T14:12:54.608Z,95.70
2022-08-30T14:14:22.226Z,96.30
2022-08-30T14:15:23.414Z,95.90
2022-08-30T14:16:27.435Z,96.80
2022-08-30T14:17:32.882Z,97.10
2022-08-30T14:18:36.353Z,96.90
2022-08-30T14:19:40.439Z,96.90
2022-08-30T14:20:44.047Z,96.70
2022-08-30T14:21:49.088Z,96.80
2022-08-30T14:22:51.415Z,98.40
2022-08-30T14:23:55.895Z,99.90
2022-08-30T14:25:01.335Z,99.90